Aviation Digital Data Service (ADDS)

Output produced by TAFs form (1935 UTC 16 January 2018)
found at http://www.aviationweather.gov/adds/tafs/
 
METAR text: RJOF 161637Z 11005KT 9999 -SHRA FEW012 BKN035 BKN050 13/11 Q1013 RMK 1CU012 5CU035 7SC050 A2991
Conditions at: RJOF (HOFU (JASDF) , JP) observed 1637 UTC 16 January 2018
Temperature: 13.0°C (55°F)
Dewpoint: 11.0°C (52°F) [RH = 88%]
Pressure (altimeter): 29.91 inches Hg (1013.0 mb)
Winds: from the ESE (110 degrees) at 6 MPH (5 knots; 2.6 m/s)
Visibility: 6 or more miles (10+ km)
Ceiling: 3500 feet AGL
Clouds: few clouds at 1200 feet AGL
broken clouds at 3500 feet AGL
broken clouds at 5000 feet AGL
Weather: -SHRA  (light rain showers)